Latest Weather Observations for Mackay Airport

IDQ60801

Issued at 11:35 pm EST Saturday 20 September 2014 (issued every 30 minutes, with the page automatically refreshed every 10 minutes)

About weather observations | Map of weather stations | Latest weather observations for QLD | Other Formats
Station Details ID: 033045 Name: MACKAY AERO Lat: -21.17 Lon: 149.18 Height: 4.7 m
Data from the previous 72 hours. | See also: Recent months at Mackay Airport
Date/Time
EST
Temp
°C
App
Temp
°C
Dew
Point
Rel
Hum
%
Delta-T
°C
Wind Press
QNH
hPa
Press
MSL
hPa
Rain
since 9 am
mm
Dir
 
Spd
km/h
Gust
km/h
Spd
kts
Gust
kts
20/11:30pm 21.9 21.7 17.5 76 2.7 NE 15 19 8 10 1019.5 1019.5 0.0
20/11:00pm 22.0 21.8 17.6 76 2.7 NE 15 19 8 10 1019.6 1019.6 0.0
20/10:30pm 22.0 21.6 17.2 74 2.9 NE 15 22 8 12 1019.6 1019.6 0.0
20/10:00pm 22.2 21.5 17.3 74 3.0 NE 17 20 9 11 1019.6 1019.6 0.0
20/09:30pm 22.1 21.6 16.8 72 3.2 ENE 15 20 8 11 1019.7 1019.7 0.0
20/09:00pm 22.1 21.1 16.6 71 3.3 ENE 17 20 9 11 1019.6 1019.6 0.0
20/08:30pm 22.3 21.1 17.0 72 3.2 ENE 19 24 10 13 1019.5 1019.5 0.0
20/08:00pm 22.4 21.3 17.3 73 3.1 ENE 19 24 10 13 1019.2 1019.2 0.0
20/07:30pm 22.2 21.4 17.1 73 3.1 ENE 17 22 9 12 1018.8 1018.8 0.0
20/07:00pm 22.3 21.2 17.4 74 3.0 ENE 19 24 10 13 1018.2 1018.2 0.0
20/06:30pm 22.3 21.5 17.9 76 2.7 ENE 19 24 10 13 1017.7 1017.7 0.0
20/06:00pm 22.5 21.6 18.1 76 2.7 ENE 20 26 11 14 1017.1 1017.1 0.0
20/05:30pm 22.8 21.9 18.1 75 2.9 ENE 20 26 11 14 1016.5 1016.5 0.0
20/05:00pm 23.2 22.3 18.1 73 3.2 E 20 24 11 13 1015.9 1015.9 0.0
20/04:30pm 23.8 22.6 18.4 72 3.4 ENE 22 32 12 17 1015.4 1015.4 0.0
20/04:00pm 23.9 22.1 17.9 69 3.7 ENE 24 32 13 17 1015.1 1015.1 0.0
20/03:30pm 24.5 22.2 17.7 66 4.2 ENE 26 33 14 18 1014.9 1014.9 0.0
20/03:00pm 24.7 22.1 17.9 66 4.3 ENE 28 35 15 19 1015.0 1015.0 0.0
20/02:30pm 24.8 22.6 18.7 69 3.9 ENE 28 35 15 19 1015.2 1015.2 0.0
20/02:00pm 25.2 23.1 18.9 68 4.0 ENE 28 32 15 17 1015.5 1015.5 0.0
20/01:30pm 25.6 23.9 19.0 67 4.2 ENE 26 33 14 18 1015.8 1015.8 0.0
20/01:00pm 25.5 23.5 18.2 64 4.6 ENE 26 32 14 17 1016.3 1016.3 0.0
20/12:30pm 25.5 23.3 17.9 63 4.8 NE 26 32 14 17 1016.7 1016.7 0.0
20/12:00pm 25.8 23.6 18.7 65 4.5 ENE 28 33 15 18 1017.0 1017.0 0.0
20/11:30am 26.0 24.6 19.6 68 4.1 ENE 26 32 14 17 1017.3 1017.3 0.0
20/11:00am 24.4 23.2 18.3 69 3.8 ENE 22 28 12 15 1017.8 1017.8 0.0
20/10:30am 25.7 25.1 18.9 66 4.3 ENE 20 26 11 14 1018.2 1018.2 0.0
20/10:00am 25.1 24.7 16.3 58 5.4 N 13 22 7 12 1018.6 1018.6 0.0
20/09:30am 24.6 25.4 18.1 67 4.1 NNW 11 17 6 9 1018.8 1018.8 0.0
20/09:00am 23.5 24.2 17.9 71 3.5 WNW 11 17 6 9 1018.9 1018.9 0.0
20/08:30am 22.4 23.3 18.4 78 2.5 W 11 15 6 8 1019.0 1019.0 0.0
20/08:00am 20.3 20.7 17.3 83 1.8 WSW 11 13 6 7 1018.9 1018.9 0.0
20/07:30am 18.4 18.4 16.2 87 1.3 W 11 17 6 9 1018.5 1018.5 0.0
20/07:00am 17.1 16.4 15.4 90 1.0 W 13 17 7 9 1018.2 1018.2 0.0
20/06:30am 15.8 15.8 15.2 96 0.3 NNE 9 13 5 7 1017.9 1017.9 0.0
20/06:00am 14.9 15.2 14.4 97 0.3 NNE 6 9 3 5 1017.6 1017.6 0.0
20/05:46am 14.4 15.6 13.9 97 0.3 CALM 0 0 0 0 1017.5 1017.5 0.0
20/05:30am 14.3 15.5 13.8 97 0.3 CALM 0 6 0 3 1017.4 1017.4 0.0
20/05:00am 14.6 15.9 14.1 97 0.3 CALM 0 0 0 0 1017.2 1017.2 0.0
20/04:30am 14.8 15.0 14.2 96 0.3 NNE 6 7 3 4 1016.9 1016.9 0.0
20/04:00am 15.2 15.3 14.4 95 0.5 NNE 7 9 4 5 1016.7 1016.7 0.0
20/03:37am 15.6 16.1 15.0 96 0.3 NNE 6 9 3 5 1016.8 1016.8 0.0
20/03:30am 15.9 16.3 15.3 96 0.3 NNE 7 11 4 6 1016.8 1016.8 0.0
20/03:00am 16.4 16.7 15.9 97 0.3 NE 9 13 5 7 1016.9 1016.9 0.0
20/02:42am 16.5 16.8 16.0 97 0.3 NNE 9 11 5 6 1017.0 1017.0 0.0
20/02:30am 16.7 17.1 16.2 97 0.3 NE 9 11 5 6 1017.1 1017.1 0.0
20/02:15am 15.7 16.1 15.2 97 0.3 NE 7 9 4 5 1017.3 1017.3 0.0
20/02:13am 15.8 16.2 15.3 97 0.3 NE 7 9 4 5 1017.3 1017.3 0.0
20/02:00am 16.0 16.1 15.5 97 0.3 NE 9 11 5 6 1017.5 1017.5 0.0
20/01:30am 16.0 16.5 15.5 97 0.3 NE 7 9 4 5 1017.7 1017.7 0.0
20/01:00am 16.1 16.8 15.6 97 0.3 NE 6 9 3 5 1017.8 1017.8 0.0
20/12:30am 16.6 17.5 16.0 96 0.4 NE 6 7 3 4 1018.0 1018.0 0.0
20/12:00am 16.6 17.3 15.6 94 0.6 NE 6 7 3 4 1018.5 1018.5 0.0
 
Date/Time
EST
Temp
°C
App
Temp
°C
Dew
Point
Rel
Hum
%
Delta-T
°C
Wind Press
QNH
hPa
Press
MSL
hPa
Rain
since 9 am
mm
Dir
 
Spd
km/h
Gust
km/h
Spd
kts
Gust
kts
19/11:47pm 17.0 17.9 16.0 94 0.6 NE 6 7 3 4 1018.7 1018.7 0.0
19/11:30pm 17.1 18.0 16.1 94 0.6 NE 6 7 3 4 1018.8 1018.8 0.0
19/11:00pm 17.3 17.9 15.8 91 0.9 NE 7 9 4 5 1018.8 1018.8 0.0
19/10:30pm 18.3 18.9 16.8 91 0.9 NE 9 11 5 6 1018.9 1018.9 0.0
19/10:00pm 18.3 19.1 16.3 88 1.2 NE 7 9 4 5 1018.9 1018.9 0.0
19/09:30pm 20.2 21.2 16.8 81 2.1 NE 7 9 4 5 1019.0 1019.0 0.0
19/09:00pm 21.4 22.6 18.2 82 2.0 ENE 9 13 5 7 1018.9 1018.9 0.0
19/08:30pm 21.2 21.8 17.8 81 2.1 E 11 15 6 8 1018.7 1018.7 0.0
19/08:00pm 21.1 21.4 17.9 82 2.0 E 13 17 7 9 1018.6 1018.6 0.0
19/07:30pm 21.2 21.5 18.0 82 2.0 E 13 15 7 8 1018.3 1018.3 0.0
19/07:00pm 21.3 21.2 17.9 81 2.1 E 15 17 8 9 1017.8 1017.8 0.0
19/06:30pm 21.3 21.7 18.1 82 2.0 E 13 19 7 10 1017.3 1017.3 0.0
19/06:00pm 21.6 21.6 18.0 80 2.2 E 15 19 8 10 1017.0 1017.0 0.0
19/05:30pm 22.3 21.5 18.1 77 2.6 E 19 22 10 12 1016.7 1016.7 0.0
19/05:00pm 22.4 21.3 17.8 75 2.9 E 20 24 11 13 1016.6 1016.6 0.0
19/04:30pm 23.1 22.3 18.0 73 3.2 E 19 24 10 13 1016.5 1016.5 0.0
19/04:00pm 23.4 22.2 17.6 70 3.6 E 20 24 11 13 1016.2 1016.2 0.0
19/03:30pm 24.0 22.9 17.7 68 3.9 E 20 30 11 16 1016.1 1016.1 0.0
19/03:00pm 24.1 23.1 17.6 67 4.0 E 19 24 10 13 1016.0 1016.0 0.0
19/02:30pm 24.4 23.6 18.1 68 4.0 E 19 28 10 15 1016.3 1016.3 0.0
19/02:00pm 24.6 24.0 18.8 70 3.7 ESE 20 28 11 15 1016.5 1016.5 0.0
19/01:30pm 24.0 23.6 18.0 69 3.8 E 17 22 9 12 1017.0 1017.0 0.0
19/01:00pm 24.3 24.3 18.0 68 3.9 ESE 15 24 8 13 1017.6 1017.6 0.0
19/12:30pm 23.9 24.0 17.4 67 4.0 E 13 19 7 10 1018.0 1018.0 0.0
19/12:00pm 24.1 24.0 17.8 68 3.9 ESE 15 22 8 12 1018.6 1018.6 0.0
19/11:30am 24.0 24.2 17.7 68 3.9 SE 13 20 7 11 1019.1 1019.1 0.0
19/11:00am 24.1 24.7 18.5 71 3.5 ESE 13 20 7 11 1019.7 1019.7 0.0
19/10:30am 23.5 23.7 17.7 70 3.6 ESE 13 19 7 10 1020.1 1020.1 0.0
19/10:00am 24.2 24.6 18.2 69 3.8 E 13 19 7 10 1020.4 1020.4 0.0
19/09:30am 23.4 23.6 17.6 70 3.6 SE 13 19 7 10 1020.4 1020.4 0.0
19/09:00am 23.3 24.1 18.2 73 3.2 SSE 11 19 6 10 1020.3 1020.3 0.0
19/08:30am 21.1 21.4 16.9 77 2.6 SSW 11 15 6 8 1020.3 1020.3 0.0
19/08:00am 19.5 19.5 16.3 82 1.9 SW 11 13 6 7 1020.3 1020.3 0.0
19/07:30am 17.6 17.6 15.2 86 1.4 W 9 13 5 7 1020.0 1020.0 0.0
19/07:00am 15.8 15.5 14.3 91 0.9 W 9 13 5 7 1019.7 1019.7 0.0
19/06:30am 14.1 13.5 13.5 96 0.3 WSW 9 9 5 5 1019.2 1019.2 0.0
19/06:00am 12.7 11.9 11.8 94 0.5 WSW 7 9 4 5 1018.9 1018.9 0.0
19/05:30am 13.2 12.6 12.3 94 0.5 WSW 7 9 4 5 1018.7 1018.7 0.0
19/05:00am 13.9 12.8 13.0 94 0.5 WSW 11 15 6 8 1018.4 1018.4 0.0
19/04:30am 13.7 12.9 12.8 94 0.5 W 9 13 5 7 1018.2 1018.2 0.0
19/04:00am 13.2 12.5 11.9 92 0.7 WSW 7 11 4 6 1018.1 1018.1 0.0
19/03:30am 14.1 13.3 12.8 92 0.7 WSW 9 11 5 6 1018.0 1018.0 0.0
19/03:00am 14.4 14.2 13.6 95 0.4 WSW 7 9 4 5 1018.0 1018.0 0.0
19/02:30am 13.7 13.3 12.4 92 0.7 WSW 6 7 3 4 1018.2 1018.2 0.0
19/02:00am 13.9 12.6 12.6 92 0.7 WSW 11 13 6 7 1018.4 1018.4 0.0
19/01:30am 14.1 13.2 12.7 91 0.8 WSW 9 11 5 6 1018.4 1018.4 0.0
19/01:00am 15.3 14.9 13.1 87 1.2 W 7 9 4 5 1018.6 1018.6 0.0
19/12:30am 15.4 15.1 13.4 88 1.1 W 7 9 4 5 1018.7 1018.7 0.0
19/12:00am 15.9 15.5 14.1 89 1.0 W 9 13 5 7 1018.8 1018.8 0.0
 
Date/Time
EST
Temp
°C
App
Temp
°C
Dew
Point
Rel
Hum
%
Delta-T
°C
Wind Press
QNH
hPa
Press
MSL
hPa
Rain
since 9 am
mm
Dir
 
Spd
km/h
Gust
km/h
Spd
kts
Gust
kts
18/11:30pm 16.4 16.0 14.2 87 1.3 SSW 9 11 5 6 1019.1 1019.1 0.0
18/11:00pm 15.2 14.0 12.9 86 1.3 SSW 11 13 6 7 1019.1 1019.1 0.0
18/10:30pm 16.0 14.7 13.7 86 1.3 SSE 13 13 7 7 1019.1 1019.1 0.0
18/10:00pm 16.9 16.5 15.1 89 1.0 SSW 11 13 6 7 1019.0 1019.0 0.0
18/09:30pm 17.2 16.7 15.0 87 1.3 SSE 11 13 6 7 1018.9 1018.9 0.0
18/09:00pm 18.7 18.7 16.3 86 1.4 S 11 13 6 7 1018.7 1018.7 0.0
18/08:30pm 17.6 17.5 15.0 85 1.5 S 9 11 5 6 1018.6 1018.6 0.0
18/08:00pm 18.7 19.1 15.4 81 1.9 S 7 9 4 5 1018.2 1018.2 0.0
18/07:30pm 20.7 20.3 17.1 80 2.2 SE 15 19 8 10 1017.9 1017.9 0.0
18/07:00pm 20.8 20.0 17.2 80 2.2 ESE 17 19 9 10 1017.6 1017.6 0.0
18/06:30pm 21.1 20.3 17.1 78 2.4 ESE 17 20 9 11 1017.3 1017.3 0.0
18/06:00pm 21.4 20.3 16.4 73 3.0 ESE 17 22 9 12 1017.0 1017.0 0.0
18/05:30pm 22.2 20.5 16.2 69 3.6 ESE 20 26 11 14 1016.6 1016.6 0.0
18/05:00pm 23.2 21.4 17.0 68 3.8 ESE 22 28 12 15 1016.3 1016.3 0.0
18/04:30pm 23.7 20.6 16.5 64 4.4 ESE 28 35 15 19 1015.8 1015.8 0.0
18/04:00pm 24.1 20.5 17.1 65 4.3 ESE 32 39 17 21 1015.7 1015.7 0.0
18/03:30pm 24.6 19.9 15.8 58 5.3 ESE 35 43 19 23 1015.5 1015.5 0.0
18/03:00pm 24.9 20.0 15.2 54 5.8 ESE 35 44 19 24 1015.6 1015.6 0.0
18/02:30pm 25.3 20.9 16.7 59 5.3 ESE 35 46 19 25 1015.7 1015.7 0.0
18/02:00pm 25.8 21.8 17.7 61 5.1 ESE 35 46 19 25 1016.1 1016.1 0.0
18/01:30pm 26.1 20.6 13.6 46 7.4 ESE 35 43 19 23 1016.4 1016.4 0.0
18/01:00pm 26.9 21.0 12.5 40 8.3 SE 35 43 19 23 1016.7 1016.7 0.0
18/12:30pm 26.4 19.4 10.1 36 9.1 SE 37 46 20 25 1017.1 1017.1 0.0
18/12:00pm 26.4 19.8 11.3 39 8.6 ESE 37 48 20 26 1017.6 1017.6 0.0
18/11:30am 27.2 21.0 9.5 33 9.8 SE 32 39 17 21 1018.0 1018.0 0.0
18/11:00am 26.2 20.8 9.5 35 9.2 ESE 28 33 15 18 1018.5 1018.5 0.0
18/10:30am 26.4 22.3 10.1 36 9.1 SSE 22 28 12 15 1018.9 1018.9 0.0
18/10:00am 26.0 21.3 9.4 35 9.1 SE 24 30 13 16 1019.1 1019.1 0.0
18/09:30am 25.0 21.5 10.8 41 7.9 SE 20 30 11 16 1019.3 1019.3 0.0
18/09:00am 24.0 23.3 17.3 66 4.1 SE 17 20 9 11 1019.4 1019.4 0.0
18/08:30am 21.6 21.8 15.7 69 3.5 S 9 13 5 7 1019.4 1019.4 0.0
18/08:00am 18.4 18.4 15.3 82 1.8 SSW 9 13 5 7 1018.9 1018.9 0.0
18/07:30am 16.7 16.4 14.3 86 1.4 S 9 13 5 7 1018.4 1018.4 0.0
18/07:00am 15.7 15.3 14.2 91 0.8 W 9 11 5 6 1017.6 1017.6 0.0
18/06:30am 14.1 13.7 13.0 93 0.6 W 7 13 4 7 1017.3 1017.3 0.0
18/06:00am 14.3 13.0 13.7 96 0.3 W 13 17 7 9 1016.8 1016.8 0.0
18/05:30am 14.3 14.2 13.8 97 0.3 W 7 9 4 5 1016.5 1016.5 0.0
18/05:02am 13.8 12.8 13.3 97 0.3 W 11 13 6 7 1016.3 1016.3 0.0
18/05:00am 13.7 13.0 13.2 97 0.3 W 9 13 5 7 1016.3 1016.3 0.0
18/04:30am 14.2 14.0 13.7 97 0.3 W 7 9 4 5 1015.9 1015.9 0.0
18/04:18am 14.1 15.2 13.5 96 0.3 CALM 0 0 0 0 1015.8 1015.8 0.0
18/04:00am 14.6 14.2 14.1 97 0.3 WNW 9 11 5 6 1015.8 1015.8 0.0
18/03:30am 15.8 15.1 15.3 97 0.3 W 13 17 7 9 1015.8 1015.8 0.0
18/03:00am 15.4 14.9 14.9 97 0.3 WNW 11 13 6 7 1015.9 1015.9 0.0
18/02:52am 15.6 15.2 15.3 98 0.2 WNW 11 13 6 7 1015.9 1015.9 0.0
18/02:33am 14.7 14.3 14.2 97 0.3 WNW 9 9 5 5 1016.1 1016.1 0.0
18/02:30am 14.9 14.6 14.4 97 0.3 W 9 11 5 6 1016.1 1016.1 0.0
18/02:10am 16.1 15.9 15.8 98 0.2 WNW 11 13 6 7 1016.2 1016.2 0.0
18/02:00am 16.4 16.3 16.1 98 0.2 WSW 11 15 6 8 1016.4 1016.4 0.0
18/01:30am 15.5 16.0 15.0 97 0.3 NW 6 7 3 4 1016.4 1016.4 0.0
18/01:04am 15.3 15.5 14.8 97 0.3 NW 7 9 4 5 1016.5 1016.5 0.0
18/01:00am 16.1 16.6 15.6 97 0.3 NW 7 9 4 5 1016.5 1016.5 0.0
18/12:30am 16.1 16.2 15.6 97 0.3 W 9 11 5 6 1016.8 1016.8 0.0
18/12:00am 16.0 16.4 15.4 96 0.3 W 7 9 4 5 1016.9 1016.9 0.0

Other Formats:

Comma delimited format used in spreadsheet applications
http://www.bom.gov.au/fwo/IDQ60801/IDQ60801.95367.axf

JavaScript Object Notation format (JSON) in row-major order
http://www.bom.gov.au/fwo/IDQ60801/IDQ60801.95367.json